Smitwijs London — PCBI — position and weather

sailwx.info

Track history (hours):
 
Tides and Currents Weather Stations Pressure Air Temp Water Temp Dewpoint Dewpoint Depression Visibility Wind Speed Wind Dir Waves Ship Positions

Smitwijs London

Last reported at 2016-Sep-30 10:33 UTC. Time now 2016-Sep-30 11:46 UTC.
Position N 52°23' E 004°57'.

Length 75 m; beam 16 m.

Type: Tug. MMSI: 244098956.

Date/timePositionNaut miles runAvg speedWind from/ knotsBaromVisibWave heightAir tempDewpointWater temp
2016-Sep-30 10:33N 52°23' E 004°57'0 0.0
2016-Sep-30 08:33N 52°23' E 004°57'0 0.0
2016-Sep-30 06:31N 52°23' E 004°57'0 0.0
2016-Sep-30 03:30N 52°23' E 004°57'0 0.0
2016-Sep-30 02:33N 52°23' E 004°57'0 0.0
2016-Sep-29 23:30N 52°23' E 004°57'0 0.0
2016-Sep-29 21:33N 52°23' E 004°57'0 0.0
2016-Sep-29 20:33N 52°23' E 004°57'0 0.0
2016-Sep-29 19:33N 52°23' E 004°57'0 0.0
2016-Sep-29 16:33N 52°23' E 004°57'0 0.0
2016-Sep-29 15:33N 52°23' E 004°57'0 0.0
2016-Sep-29 14:33N 52°23' E 004°57'0 0.0
2016-Sep-29 13:33N 52°23' E 004°57'0 0.0
2016-Sep-29 08:31N 52°23' E 004°57'0 0.0
2016-Sep-29 07:31N 52°23' E 004°57'0 0.0
2016-Sep-29 00:32N 52°23' E 004°57'0 0.0
2016-Sep-28 21:32N 52°23' E 004°57'0 0.0
2016-Sep-28 19:32N 52°23' E 004°57'9 2.9
2016-Sep-28 16:33N 52°26' E 004°44'5 5.3
2016-Sep-28 15:33N 52°28' E 004°36'0 0.1
2016-Sep-28 12:34N 52°28' E 004°35'0 0.0
2016-Sep-28 08:34N 52°28' E 004°35'0 0.0
2016-Sep-28 03:33N 52°28' E 004°35'0 0.0
2016-Sep-28 02:33N 52°28' E 004°35'0 0.0
2016-Sep-28 01:33N 52°28' E 004°35'0 0.0
2016-Sep-27 23:34N 52°28' E 004°35'0 0.0
2016-Sep-27 19:34N 52°28' E 004°35'0 0.0
2016-Sep-27 14:33N 52°28' E 004°35'0 0.0
2016-Sep-27 13:33N 52°28' E 004°35'0 0.0
2016-Sep-27 10:33N 52°28' E 004°35'0 0.0
2016-Sep-27 00:33N 52°28' E 004°35'0 0.0
2016-Sep-26 20:33N 52°28' E 004°35'0 0.0
2016-Sep-26 19:33N 52°28' E 004°35'11 2.8
2016-Sep-26 15:33N 52°24' E 004°53'0 0.0
2016-Sep-26 13:33N 52°24' E 004°53'0 0.0
2016-Sep-26 11:33N 52°24' E 004°53'11 3.6
2016-Sep-26 08:34N 52°28' E 004°36'1 0.1
2016-Sep-26 02:33N 52°28' E 004°35'0 0.0
2016-Sep-26 01:33N 52°28' E 004°35'0 0.0
2016-Sep-26 00:33N 52°28' E 004°35'0 0.0
2016-Sep-25 21:33N 52°28' E 004°35'2 0.4
2016-Sep-25 17:34N 52°28' E 004°33'2 1.5
2016-Sep-25 16:33N 52°28' E 004°35'1 0.7
2016-Sep-25 15:33N 52°28' E 004°35'1 0.9
2016-Sep-25 14:33N 52°28' E 004°34'0 0.2
2016-Sep-25 12:34N 52°28' E 004°34'1 1.5
2016-Sep-25 11:33N 52°28' E 004°36'1 1.2
2016-Sep-25 10:34N 52°28' E 004°34'1 0.7
2016-Sep-25 09:34N 52°28' E 004°35'0 0.0
2016-Sep-25 07:33N 52°28' E 004°35'0 0.0
2016-Sep-25 04:33N 52°28' E 004°35'0 0.0
2016-Sep-25 00:33N 52°28' E 004°35'0 0.0
2016-Sep-24 22:34N 52°28' E 004°35'0 0.0
2016-Sep-24 21:34N 52°28' E 004°35'0 0.0
2016-Sep-24 19:33N 52°28' E 004°35'1 0.8
2016-Sep-24 18:33N 52°28' E 004°36'1 0.7
2016-Sep-24 17:33N 52°28' E 004°35'0 0.0
2016-Sep-24 16:34N 52°28' E 004°35'0 0.0
2016-Sep-24 14:34N 52°28' E 004°35'0 0.0
2016-Sep-24 12:34N 52°28' E 004°35'0 0.0
2016-Sep-24 10:33N 52°28' E 004°35'1 1.3
2016-Sep-24 09:34N 52°28' E 004°33'1 0.2
2016-Sep-24 03:33N 52°28' E 004°35'0 0.0
2016-Sep-24 02:33N 52°28' E 004°35'0 0.0
2016-Sep-24 01:33N 52°28' E 004°35'1 0.8
2016-Sep-24 00:33N 52°28' E 004°36'2 0.4
2016-Sep-23 19:34N 52°28' E 004°33'1 0.7
2016-Sep-23 17:33N 52°28' E 004°35'0 0.0
2016-Sep-23 16:33N 52°28' E 004°35'1 1.0
2016-Sep-23 15:33N 52°28' E 004°34'0 0.1
2016-Sep-23 13:33N 52°28' E 004°34'1 0.2
2016-Sep-23 09:33N 52°28' E 004°35'0 0.0
2016-Sep-23 06:33N 52°28' E 004°35'0 0.0
2016-Sep-23 04:33N 52°28' E 004°35'0 0.0
2016-Sep-23 03:33N 52°28' E 004°35'0 0.0
2016-Sep-23 02:33N 52°28' E 004°35'0 0.0
2016-Sep-23 01:33N 52°28' E 004°35'0 0.5
2016-Sep-23 00:33N 52°28' E 004°35'0 0.3
2016-Sep-22 23:34N 52°28' E 004°35'0 0.1
2016-Sep-22 20:33N 52°28' E 004°35'1 0.1
2016-Sep-22 12:33N 52°28' E 004°35'0 0.0
2016-Sep-22 04:33N 52°28' E 004°35'0 0.3
2016-Sep-22 03:33N 52°28' E 004°35'2 0.6
2016-Sep-22 00:34N 52°28' E 004°38'1 0.5
2016-Sep-21 23:33N 52°28' E 004°39'2 1.9
2016-Sep-21 22:33N 52°28' E 004°35'0 0.1
2016-Sep-21 19:33N 52°28' E 004°35'0 0.0
2016-Sep-21 16:33N 52°28' E 004°35'0 0.0
2016-Sep-21 09:24N 52°28' E 004°35'0 0.0
2016-Sep-21 08:28N 52°28' E 004°35'0 0.0
2016-Sep-21 05:34N 52°28' E 004°35'1 0.3
2016-Sep-21 03:33N 52°28' E 004°35'2 1.6
2016-Sep-21 02:33N 52°28' E 004°33'2 0.2
2016-Sep-20 17:33N 52°28' E 004°35'  
Track history (hours):
 
Tides and Currents Weather Stations Pressure Air Temp Water Temp Dewpoint Dewpoint Depression Visibility Wind Speed Wind Dir Waves Ship Positions

Smitwijs London

Last reported at 2016-Sep-30 10:33 UTC. Time now 2016-Sep-30 11:46 UTC.
Position N 52°23' E 004°57'.

Length 75 m; beam 16 m.

Type: Tug. MMSI: 244098956.

Date/timePositionNaut miles runAvg speedWind from/ knotsBaromVisibWave heightAir tempDewpointWater temp
2016-Sep-30 10:33N 52°23' E 004°57'0 0.0
2016-Sep-30 08:33N 52°23' E 004°57'0 0.0
2016-Sep-30 06:31N 52°23' E 004°57'0 0.0
2016-Sep-30 03:30N 52°23' E 004°57'0 0.0
2016-Sep-30 02:33N 52°23' E 004°57'0 0.0
2016-Sep-29 23:30N 52°23' E 004°57'0 0.0
2016-Sep-29 21:33N 52°23' E 004°57'0 0.0
2016-Sep-29 20:33N 52°23' E 004°57'0 0.0
2016-Sep-29 19:33N 52°23' E 004°57'0 0.0
2016-Sep-29 16:33N 52°23' E 004°57'0 0.0
2016-Sep-29 15:33N 52°23' E 004°57'0 0.0
2016-Sep-29 14:33N 52°23' E 004°57'0 0.0
2016-Sep-29 13:33N 52°23' E 004°57'0 0.0
2016-Sep-29 08:31N 52°23' E 004°57'0 0.0
2016-Sep-29 07:31N 52°23' E 004°57'0 0.0
2016-Sep-29 00:32N 52°23' E 004°57'0 0.0
2016-Sep-28 21:32N 52°23' E 004°57'0 0.0
2016-Sep-28 19:32N 52°23' E 004°57'9 2.9
2016-Sep-28 16:33N 52°26' E 004°44'5 5.3
2016-Sep-28 15:33N 52°28' E 004°36'0 0.1
2016-Sep-28 12:34N 52°28' E 004°35'0 0.0
2016-Sep-28 08:34N 52°28' E 004°35'0 0.0
2016-Sep-28 03:33N 52°28' E 004°35'0 0.0
2016-Sep-28 02:33N 52°28' E 004°35'0 0.0
2016-Sep-28 01:33N 52°28' E 004°35'0 0.0
2016-Sep-27 23:34N 52°28' E 004°35'0 0.0
2016-Sep-27 19:34N 52°28' E 004°35'0 0.0
2016-Sep-27 14:33N 52°28' E 004°35'0 0.0
2016-Sep-27 13:33N 52°28' E 004°35'0 0.0
2016-Sep-27 10:33N 52°28' E 004°35'0 0.0
2016-Sep-27 00:33N 52°28' E 004°35'0 0.0
2016-Sep-26 20:33N 52°28' E 004°35'0 0.0
2016-Sep-26 19:33N 52°28' E 004°35'11 2.8
2016-Sep-26 15:33N 52°24' E 004°53'0 0.0
2016-Sep-26 13:33N 52°24' E 004°53'0 0.0
2016-Sep-26 11:33N 52°24' E 004°53'11 3.6
2016-Sep-26 08:34N 52°28' E 004°36'1 0.1
2016-Sep-26 02:33N 52°28' E 004°35'0 0.0
2016-Sep-26 01:33N 52°28' E 004°35'0 0.0
2016-Sep-26 00:33N 52°28' E 004°35'0 0.0
2016-Sep-25 21:33N 52°28' E 004°35'2 0.4
2016-Sep-25 17:34N 52°28' E 004°33'2 1.5
2016-Sep-25 16:33N 52°28' E 004°35'1 0.7
2016-Sep-25 15:33N 52°28' E 004°35'1 0.9
2016-Sep-25 14:33N 52°28' E 004°34'0 0.2
2016-Sep-25 12:34N 52°28' E 004°34'1 1.5
2016-Sep-25 11:33N 52°28' E 004°36'1 1.2
2016-Sep-25 10:34N 52°28' E 004°34'1 0.7
2016-Sep-25 09:34N 52°28' E 004°35'0 0.0
2016-Sep-25 07:33N 52°28' E 004°35'0 0.0
2016-Sep-25 04:33N 52°28' E 004°35'0 0.0
2016-Sep-25 00:33N 52°28' E 004°35'0 0.0
2016-Sep-24 22:34N 52°28' E 004°35'0 0.0
2016-Sep-24 21:34N 52°28' E 004°35'0 0.0
2016-Sep-24 19:33N 52°28' E 004°35'1 0.8
2016-Sep-24 18:33N 52°28' E 004°36'1 0.7
2016-Sep-24 17:33N 52°28' E 004°35'0 0.0
2016-Sep-24 16:34N 52°28' E 004°35'0 0.0
2016-Sep-24 14:34N 52°28' E 004°35'0 0.0
2016-Sep-24 12:34N 52°28' E 004°35'0 0.0
2016-Sep-24 10:33N 52°28' E 004°35'1 1.3
2016-Sep-24 09:34N 52°28' E 004°33'1 0.2
2016-Sep-24 03:33N 52°28' E 004°35'0 0.0
2016-Sep-24 02:33N 52°28' E 004°35'0 0.0
2016-Sep-24 01:33N 52°28' E 004°35'1 0.8
2016-Sep-24 00:33N 52°28' E 004°36'2 0.4
2016-Sep-23 19:34N 52°28' E 004°33'1 0.7
2016-Sep-23 17:33N 52°28' E 004°35'0 0.0
2016-Sep-23 16:33N 52°28' E 004°35'1 1.0
2016-Sep-23 15:33N 52°28' E 004°34'0 0.1
2016-Sep-23 13:33N 52°28' E 004°34'1 0.2
2016-Sep-23 09:33N 52°28' E 004°35'0 0.0
2016-Sep-23 06:33N 52°28' E 004°35'0 0.0
2016-Sep-23 04:33N 52°28' E 004°35'0 0.0
2016-Sep-23 03:33N 52°28' E 004°35'0 0.0
2016-Sep-23 02:33N 52°28' E 004°35'0 0.0
2016-Sep-23 01:33N 52°28' E 004°35'0 0.5
2016-Sep-23 00:33N 52°28' E 004°35'0 0.3
2016-Sep-22 23:34N 52°28' E 004°35'0 0.1
2016-Sep-22 20:33N 52°28' E 004°35'1 0.1
2016-Sep-22 12:33N 52°28' E 004°35'0 0.0
2016-Sep-22 04:33N 52°28' E 004°35'0 0.3
2016-Sep-22 03:33N 52°28' E 004°35'2 0.6
2016-Sep-22 00:34N 52°28' E 004°38'1 0.5
2016-Sep-21 23:33N 52°28' E 004°39'2 1.9
2016-Sep-21 22:33N 52°28' E 004°35'0 0.1
2016-Sep-21 19:33N 52°28' E 004°35'0 0.0
2016-Sep-21 16:33N 52°28' E 004°35'0 0.0
2016-Sep-21 09:24N 52°28' E 004°35'0 0.0
2016-Sep-21 08:28N 52°28' E 004°35'0 0.0
2016-Sep-21 05:34N 52°28' E 004°35'1 0.3
2016-Sep-21 03:33N 52°28' E 004°35'2 1.6
2016-Sep-21 02:33N 52°28' E 004°33'2 0.2
2016-Sep-20 17:33N 52°28' E 004°35'  

Dump ship's entire track history